This is the latest recevied weather packets stored in our database for station/object N9PBY-2. If no packets are shown the sender has not sent any weather packets the latest 10 day(s).
| Time | Temp. | Humidity | Pressure | Rain* | Wind** | Luminosity | Snow |
|---|---|---|---|---|---|---|---|
| 1778109006 | 10° C | 31% | 1012.6 hPa | 0 mm | - | - | - |
| 1778108407 | 10° C | 33% | 1012.6 hPa | 0 mm | - | - | - |
| 1778107807 | 10° C | 32% | 1012.5 hPa | 0 mm | - | - | - |
| 1778107206 | 10.56° C | 32% | 1012.5 hPa | 0 mm | - | - | - |
| 1778106607 | 10.56° C | 31% | 1012.3 hPa | 0 mm | - | - | - |
| 1778106007 | 10.56° C | 32% | 1012.2 hPa | 0 mm | - | - | - |
| 1778105407 | 10.56° C | 31% | 1012.1 hPa | 0 mm | - | - | - |
| 1778104807 | 10.56° C | 31% | 1012.2 hPa | 0 mm | - | - | - |
| 1778104206 | 10.56° C | 32% | 1012.1 hPa | 0 mm | - | - | - |
| 1778103606 | 11.11° C | 32% | 1012.1 hPa | 0 mm | - | - | - |
| 1778103006 | 11.11° C | 31% | 1012.1 hPa | 0 mm | - | - | - |
| 1778102407 | 11.11° C | 32% | 1012.1 hPa | 0 mm | - | - | - |
| 1778101807 | 11.11° C | 31% | 1012.1 hPa | 0 mm | - | - | - |
| 1778101206 | 11.11° C | 32% | 1012.1 hPa | 0 mm | - | - | - |
| 1778100606 | 11.11° C | 32% | 1012.2 hPa | 0 mm | - | - | - |
| 1778100006 | 11.11° C | 31% | 1012.2 hPa | 0 mm | - | - | - |
| 1778099407 | 11.11° C | 32% | 1012.3 hPa | 0 mm | - | - | - |
| 1778098807 | 11.11° C | 30% | 1012.4 hPa | 0 mm | - | - | - |
| 1778098206 | 11.11° C | 28% | 1012.4 hPa | 0 mm | - | - | - |
| 1778097606 | 12.22° C | 27% | 1012.4 hPa | 0 mm | - | - | - |
| 1778097007 | 12.22° C | 28% | 1012.4 hPa | 0 mm | - | - | - |
| 1778096407 | 12.78° C | 29% | 1012.2 hPa | 0 mm | - | - | - |
| 1778095806 | 13.33° C | 28% | 1012.3 hPa | 0 mm | - | - | - |
| 1778095206 | 13.33° C | 29% | 1012.2 hPa | 0 mm | - | - | - |
| 1778094006 | 12.22° C | 34% | 1012.4 hPa | 0 mm | - | - | - |
* Rain latest hour (hover to see other rain measurements)
** Current wind speed in m/s (hover to see current wind gust speed)